Time;durP1;ratioP1;P1;durP2;ratioP2;P2;SDS_P1;SDS_P2;PMS_P1;PMS_P2;Temp;Humidity;BMP_temperature;BMP_pressure;BME280_temperature;BME280_humidity;BME280_pressure;Samples;Min_cycle;Max_cycle;Signal;HPM_P1;HPM_P2
2020/12/06 00:01:45;;;;;;;28.77;22.83;;;;;;;;;;4599451;28;20428;-83
2020/12/06 00:04:03;;;;;;;29.67;23.77;;;10.10;79.30;;;;;;4597110;28;20431;-81
2020/12/06 00:06:20;;;;;;;29.70;22.80;;;;;;;;;;4593504;28;20853;-82
2020/12/06 00:08:38;;;;;;;33.27;24.63;;;;;;;;;;4602614;28;20494;-83
2020/12/06 00:10:55;;;;;;;28.97;23.73;;;;;;;;;;4593375;28;20455;-82
2020/12/06 00:13:11;;;;;;;29.63;22.90;;;;;;;;;;4593698;28;20828;-83
2020/12/06 00:15:28;;;;;;;30.70;22.73;;;11.50;81.50;;;;;;4593905;28;20483;-82
2020/12/06 00:17:45;;;;;;;31.73;24.40;;;10.70;80.90;;;;;;4594607;28;20825;-82
2020/12/06 00:20:02;;;;;;;30.07;24.17;;;;;;;;;;4576782;28;21085;-83
2020/12/06 00:22:19;;;;;;;31.77;22.50;;;;;;;;;;4593417;28;20451;-83
2020/12/06 00:24:36;;;;;;;32.37;23.13;;;10.30;80.90;;;;;;4594257;28;20432;-82
2020/12/06 00:26:53;;;;;;;30.33;23.70;;;;;;;;;;4593075;28;20532;-81
2020/12/06 00:29:09;;;;;;;29.23;24.07;;;;;;;;;;4594308;28;20440;-82
2020/12/06 00:31:26;;;;;;;31.77;24.53;;;;;;;;;;4593476;28;20440;-82
2020/12/06 00:33:44;;;;;;;28.93;22.87;;;10.80;77.50;;;;;;4594179;28;20446;-83
2020/12/06 00:36:00;;;;;;;29.17;24.30;;;;;;;;;;4576315;28;20481;-84
2020/12/06 00:38:17;;;;;;;28.07;22.63;;;;;;;;;;4592891;28;20482;-83
2020/12/06 00:40:34;;;;;;;31.10;23.70;;;11.00;82.60;;;;;;4593507;28;20970;-84
2020/12/06 00:42:50;;;;;;;30.30;23.80;;;;;;;;;;4593292;28;20435;-82
2020/12/06 00:45:07;;;;;;;30.67;23.83;;;;;;;;;;4593678;28;20444;-84
2020/12/06 00:47:23;;;;;;;29.63;23.47;;;;;;;;;;4577364;28;20437;-83
2020/12/06 00:49:41;;;;;;;29.50;23.37;;;;;;;;;;4592303;28;20440;-84
2020/12/06 00:55:47;;;;;;;27.93;21.60;;;10.80;82.40;;;;;;4594462;28;20413;-84
2020/12/06 00:58:04;;;;;;;28.87;23.13;;;;;;;;;;4593321;28;20545;-84
2020/12/06 01:00:21;;;;;;;29.33;23.23;;;;;;;;;;4593150;28;20474;-83
2020/12/06 01:02:37;;;;;;;28.57;22.47;;;;;;;;;;4591928;28;20440;-82
2020/12/06 01:04:55;;;;;;;28.73;23.03;;;;;;;;;;4593299;28;20440;-83
2020/12/06 01:07:11;;;;;;;29.27;22.87;;;;;;;;;;4592203;28;20522;-84
2020/12/06 01:09:27;;;;;;;33.00;23.10;;;;;;;;;;4594375;28;20628;-84
2020/12/06 01:11:48;;;;;;;32.97;24.00;;;;;;;;;;4591689;28;20506;-83
2020/12/06 01:14:05;;;;;;;30.43;23.77;;;;;;;;;;4592692;28;20555;-83
2020/12/06 01:16:21;;;;;;;26.80;22.37;;;;;;;;;;4593403;28;20444;-84
2020/12/06 01:18:38;;;;;;;30.53;23.30;;;;;;;;;;4593162;28;21044;-83
2020/12/06 01:20:55;;;;;;;29.00;23.37;;;;;;;;;;4593550;28;20444;-84
2020/12/06 01:23:12;;;;;;;29.23;23.60;;;;;;;;;;4592692;28;20486;-83
2020/12/06 01:25:29;;;;;;;25.63;21.57;;;;;;;;;;4592343;28;20447;-84
2020/12/06 01:27:45;;;;;;;30.23;22.03;;;;;;;;;;4593362;28;20448;-83
2020/12/06 01:30:03;;;;;;;27.43;23.10;;;;;;;;;;4593714;28;20448;-83
2020/12/06 01:32:20;;;;;;;28.77;22.00;;;;;;;;;;4592042;28;20444;-83
2020/12/06 01:34:37;;;;;;;26.50;21.77;;;;;;;;;;4593778;28;20582;-83
2020/12/06 01:36:55;;;;;;;25.83;21.73;;;;;;;;;;4593674;28;20440;-83
2020/12/06 01:39:12;;;;;;;27.10;22.00;;;;;;;;;;4593811;28;20521;-83
2020/12/06 01:41:28;;;;;;;27.17;21.83;;;;;;;;;;4591874;28;20464;-84
2020/12/06 01:43:54;;;;;;;25.63;20.67;;;10.70;78.90;;;;;;4595354;28;20801;-85
2020/12/06 01:46:14;;;;;;;28.20;21.40;;;8.60;77.50;;;;;;4595789;28;20454;-83
2020/12/06 01:48:31;;;;;;;26.23;21.20;;;;;;;;;;4597332;28;20428;-83
2020/12/06 01:50:47;;;;;;;27.77;20.57;;;;;;;;;;4596641;28;20455;-83
2020/12/06 01:53:05;;;;;;;26.33;20.87;;;;;;;;;;4597788;28;20590;-83
2020/12/06 01:55:23;;;;;;;25.53;21.00;;;;;;;;;;4595347;28;20444;-83
2020/12/06 01:57:39;;;;;;;26.30;21.53;;;;;;;;;;4596188;28;20475;-84
2020/12/06 01:59:56;;;;;;;24.10;20.90;;;;;;;;;;4596643;28;20479;-85
2020/12/06 02:02:14;;;;;;;24.30;19.70;;;10.70;79.20;;;;;;4595794;28;20450;-83
2020/12/06 02:04:31;;;;;;;24.93;21.07;;;;;;;;;;4596931;28;20439;-84
2020/12/06 02:06:48;;;;;;;24.70;20.83;;;8.90;83.20;;;;;;4595481;28;20447;-84
2020/12/06 02:09:04;;;;;;;27.57;21.40;;;;;;;;;;4597014;28;20828;-83
2020/12/06 02:11:31;;;;;;;24.97;20.70;;;;;;;;;;4595582;28;20455;-85
2020/12/06 02:13:47;;;;;;;25.97;20.23;;;;;;;;;;4596896;28;20472;-83
2020/12/06 02:16:04;;;;;;;25.57;20.70;;;;;;;;;;4596336;28;20551;-84
2020/12/06 02:18:20;;;;;;;28.63;21.60;;;;;;;;;;4596669;28;20443;-83
2020/12/06 02:20:38;;;;;;;25.23;20.13;;;;;;;;;;4594937;28;20450;-85
2020/12/06 02:22:55;;;;;;;25.70;20.43;;;;;;;;;;4596654;28;20914;-83
2020/12/06 02:25:11;;;;;;;23.03;20.03;;;9.80;83.10;;;;;;4595253;28;20440;-83
2020/12/06 02:27:28;;;;;;;25.87;20.40;;;;;;;;;;4595793;28;20447;-83
2020/12/06 02:29:45;;;;;;;28.10;21.30;;;;;;;;;;4578587;28;20447;-85
2020/12/06 02:32:01;;;;;;;26.53;20.77;;;;;;;;;;4596837;28;20439;-83
2020/12/06 02:34:18;;;;;;;26.73;21.20;;;;;;;;;;4578299;28;20511;-83
2020/12/06 02:36:35;;;;;;;23.83;20.70;;;;;;;;;;4596665;28;20490;-83
2020/12/06 02:38:51;;;;;;;24.60;20.90;;;;;;;;;;4595694;28;20475;-83
2020/12/06 02:41:09;;;;;;;29.60;22.10;;;;;;;;;;4596537;28;20456;-82
2020/12/06 02:43:25;;;;;;;24.33;20.30;;;;;;;;;;4594911;28;20420;-85
2020/12/06 02:45:42;;;;;;;24.33;20.00;;;;;;;;;;4578950;28;20788;-84
2020/12/06 02:47:58;;;;;;;24.30;20.20;;;;;;;;;;4595123;28;20440;-83
2020/12/06 02:50:15;;;;;;;30.20;21.03;;;10.20;83.90;;;;;;4596131;28;20546;-83
2020/12/06 02:52:33;;;;;;;28.27;20.60;;;;;;;;;;4595212;28;20937;-83
2020/12/06 02:54:51;;;;;;;23.67;19.03;;;;;;;;;;4593425;28;20504;-84
2020/12/06 02:57:07;;;;;;;25.47;21.10;;;;;;;;;;4596410;28;20444;-84
2020/12/06 02:59:24;;;;;;;26.10;20.53;;;;;;;;;;4595762;28;20539;-85
2020/12/06 03:01:40;;;;;;;25.43;19.13;;;;;;;;;;4596159;28;20510;-84
2020/12/06 03:03:57;;;;;;;25.00;20.03;;;;;;;;;;4594408;28;20439;-84
2020/12/06 03:06:15;;;;;;;21.80;19.33;;;;;;;;;;4595753;28;20511;-84
2020/12/06 03:08:33;;;;;;;24.17;19.30;;;;;;;;;;4607953;28;20427;-80
2020/12/06 03:10:50;;;;;;;23.50;19.77;;;;;;;;;;4612535;28;20469;-84
2020/12/06 03:13:06;;;;;;;22.83;18.47;;;;;;;;;;4607081;28;20494;-86
2020/12/06 03:15:23;;;;;;;22.93;18.40;;;;;;;;;;4611435;28;20455;-84
2020/12/06 03:17:39;;;;;;;21.90;19.03;;;;;;;;;;4616045;28;20950;-86
2020/12/06 03:19:56;;;;;;;25.33;18.97;;;;;;;;;;4595208;28;20476;-84
2020/12/06 03:22:13;;;;;;;21.97;18.77;;;;;;;;;;4594338;28;20448;-86
2020/12/06 03:24:30;;;;;;;23.60;19.23;;;10.80;84.40;;;;;;4594800;28;20444;-87
2020/12/06 03:26:46;;;;;;;23.87;18.87;;;;;;;;;;4595284;28;20436;-86
2020/12/06 03:29:03;;;;;;;24.73;18.13;;;10.00;84.10;;;;;;4594526;28;20538;-85
2020/12/06 03:31:20;;;;;;;22.00;18.47;;;;;;;;;;4594427;28;20452;-85
2020/12/06 03:33:36;;;;;;;23.33;19.30;;;10.80;84.20;;;;;;4595613;28;20436;-86
2020/12/06 03:35:53;;;;;;;23.07;18.60;;;;;;;;;;4595754;28;20436;-86
2020/12/06 03:38:10;;;;;;;21.53;18.10;;;;;;;;;;4593737;28;20494;-85
2020/12/06 03:40:27;;;;;;;20.87;18.30;;;;;;;;;;4595468;28;20486;-86
2020/12/06 03:42:44;;;;;;;23.83;19.00;;;;;;;;;;4594805;28;20460;-86
2020/12/06 03:45:00;;;;;;;21.83;18.80;;;;;;;;;;4594383;28;20440;-86
2020/12/06 03:47:17;;;;;;;23.03;19.53;;;;;;;;;;4593590;28;20444;-85
2020/12/06 03:49:34;;;;;;;24.87;19.57;;;;;;;;;;4594142;28;20486;-86
2020/12/06 03:51:50;;;;;;;21.83;17.87;;;;;;;;;;4593686;28;20440;-86
2020/12/06 03:54:07;;;;;;;23.90;18.63;;;;;;;;;;4595375;28;20474;-87
2020/12/06 03:56:25;;;;;;;22.97;18.57;;;;;;;;;;4594002;28;20848;-85
2020/12/06 03:58:41;;;;;;;23.40;18.43;;;;;;;;;;4594953;28;20440;-84
2020/12/06 04:01:00;;;;;;;23.90;20.13;;;;;;;;;;4594774;28;20515;-85
2020/12/06 04:03:17;;;;;;;22.30;18.80;;;;;;;;;;4593803;28;21020;-85
2020/12/06 04:05:34;;;;;;;22.33;18.23;;;;;;;;;;4594435;28;20440;-88
2020/12/06 04:07:51;;;;;;;23.83;19.20;;;;;;;;;;4594825;28;20442;-87
2020/12/06 04:10:07;;;;;;;23.77;19.10;;;;;;;;;;4593161;28;20495;-85
2020/12/06 04:12:25;;;;;;;21.17;18.07;;;;;;;;;;4594714;28;20439;-85
2020/12/06 04:14:41;;;;;;;21.90;17.33;;;;;;;;;;4594535;28;20460;-85
2020/12/06 04:16:58;;;;;;;20.57;18.03;;;;;;;;;;4593554;28;21009;-85
2020/12/06 04:19:15;;;;;;;22.33;18.43;;;;;;;;;;4577546;28;20635;-85
2020/12/06 04:21:33;;;;;;;21.10;17.13;;;;;;;;;;4592934;28;20475;-85
2020/12/06 04:23:50;;;;;;;20.50;17.80;;;;;;;;;;4593700;28;20444;-86
2020/12/06 04:26:06;;;;;;;22.07;17.07;;;;;;;;;;4594225;28;20486;-86
2020/12/06 04:28:24;;;;;;;21.53;16.57;;;;;;;;;;4593680;28;20887;-86
2020/12/06 04:30:41;;;;;;;23.80;18.93;;;;;;;;;;4594326;28;20621;-85
2020/12/06 04:32:57;;;;;;;21.57;17.90;;;;;;;;;;4594647;28;20444;-86
2020/12/06 04:35:13;;;;;;;19.37;17.27;;;;;;;;;;4592650;28;20802;-85
2020/12/06 04:37:30;;;;;;;21.27;17.67;;;;;;;;;;4593365;28;20809;-85
2020/12/06 04:39:47;;;;;;;19.17;16.67;;;;;;;;;;4593014;28;20475;-85
2020/12/06 04:42:04;;;;;;;20.80;18.10;;;;;;;;;;4593187;28;20459;-86
2020/12/06 04:44:22;;;;;;;19.83;16.87;;;;;;;;;;4592934;28;20447;-84
2020/12/06 04:46:39;;;;;;;19.87;16.37;;;;;;;;;;4593242;28;20486;-87
2020/12/06 04:49:05;;;;;;;20.90;17.50;;;10.30;79.10;;;;;;4594027;28;20481;-86
2020/12/06 04:51:22;;;;;;;19.93;17.73;;;9.30;83.30;;;;;;4594170;28;20795;-85
2020/12/06 04:53:44;;;;;;;22.53;17.37;;;10.00;83.60;;;;;;4592878;28;20436;-86
2020/12/06 04:56:03;;;;;;;19.37;16.93;;;;;;;;;;4593092;28;20459;-85
2020/12/06 04:58:26;;;;;;;19.90;17.13;;;10.70;79.30;;;;;;4594555;28;20436;-82
2020/12/06 05:00:45;;;;;;;19.90;17.33;;;10.90;79.30;;;;;;4593612;28;20460;-84
2020/12/06 05:03:06;;;;;;;20.53;16.30;;;;;;;;;;4593303;28;20456;-86
2020/12/06 05:05:24;;;;;;;21.03;16.57;;;;;;;;;;4592373;28;21067;-86
2020/12/06 05:07:45;;;;;;;19.37;17.00;;;;;;;;;;4594551;28;20440;-86
2020/12/06 05:10:01;;;;;;;20.17;16.27;;;;;;;;;;4576140;28;20441;-85
2020/12/06 05:12:19;;;;;;;21.27;17.37;;;;;;;;;;4592655;28;20475;-84
2020/12/06 05:14:37;;;;;;;20.33;16.70;;;;;;;;;;4593533;28;20503;-86
2020/12/06 05:16:56;;;;;;;20.07;16.67;;;8.30;77.40;;;;;;4593679;28;20473;-85
2020/12/06 05:19:13;;;;;;;18.60;16.60;;;;;;;;;;4593227;28;20464;-86
2020/12/06 05:21:34;;;;;;;21.40;16.60;;;;;;;;;;4593882;28;20977;-87
2020/12/06 05:23:50;;;;;;;18.40;15.70;;;;;;;;;;4593971;28;20436;-86
2020/12/06 05:26:07;;;;;;;21.93;17.27;;;;;;;;;;4592494;28;20443;-85
2020/12/06 05:28:25;;;;;;;18.80;16.80;;;10.20;78.80;;;;;;4594099;28;20498;-85
2020/12/06 05:30:41;;;;;;;21.13;16.33;;;;;;;;;;4592826;28;20960;-86
2020/12/06 05:32:59;;;;;;;17.73;15.77;;;;;;;;;;4593022;28;20482;-86
2020/12/06 05:35:15;;;;;;;20.07;15.77;;;;;;;;;;4592066;28;20463;-85
2020/12/06 05:37:32;;;;;;;20.27;16.17;;;;;;;;;;4593011;28;20448;-86
2020/12/06 05:39:49;;;;;;;19.90;15.97;;;;;;;;;;4591775;28;20479;-85
2020/12/06 05:42:05;;;;;;;19.50;16.03;;;;;;;;;;4593096;28;20923;-86
2020/12/06 05:44:22;;;;;;;19.33;16.73;;;;;;;;;;4592097;28;20440;-85
2020/12/06 05:46:40;;;;;;;19.90;15.60;;;;;;;;;;4594111;28;20938;-84
2020/12/06 05:48:57;;;;;;;19.53;16.37;;;;;;;;;;4593175;28;20444;-85
2020/12/06 05:51:14;;;;;;;19.33;16.00;;;;;;;;;;4592477;28;20448;-85
2020/12/06 05:53:31;;;;;;;17.13;14.90;;;;;;;;;;4593333;28;20451;-85
2020/12/06 05:55:48;;;;;;;18.77;16.10;;;;;;;;;;4592545;28;20450;-86
2020/12/06 05:58:05;;;;;;;18.07;15.40;;;;;;;;;;4591748;28;21043;-85
2020/12/06 06:00:22;;;;;;;19.83;15.70;;;;;;;;;;4593499;28;20476;-85
2020/12/06 06:02:43;;;;;;;21.23;16.33;;;10.90;84.00;;;;;;4593295;28;20515;-83
2020/12/06 06:05:04;;;;;;;18.17;15.90;;;10.90;79.20;;;;;;4596632;28;20451;-84
2020/12/06 06:07:21;;;;;;;19.17;16.13;;;;;;;;;;4593951;28;20907;-85
2020/12/06 06:09:42;;;;;;;17.27;15.37;;;10.10;78.80;;;;;;4593228;28;20440;-85
2020/12/06 06:12:13;;;;;;;19.33;15.73;;;10.40;79.10;;;;;;4592836;28;20837;-85
2020/12/06 06:14:33;;;;;;;17.53;15.07;;;;;;;;;;4593210;28;20478;-84
2020/12/06 06:16:51;;;;;;;18.77;15.37;;;9.90;83.50;;;;;;4599839;28;20447;-85
2020/12/06 06:19:08;;;;;;;17.70;14.93;;;;;;;;;;4610405;28;20428;-84
2020/12/06 06:21:41;;;;;;;18.97;15.23;;;10.70;78.80;;;;;;4595160;28;20456;-84
2020/12/06 06:23:59;;;;;;;17.43;15.23;;;;;;;;;;4600523;28;20915;-84
2020/12/06 06:26:18;;;;;;;17.23;15.27;;;10.50;78.90;;;;;;4610304;28;20424;-85
2020/12/06 06:28:38;;;;;;;17.53;15.60;;;;;;;;;;4609318;28;20424;-83
2020/12/06 06:30:56;;;;;;;19.27;15.73;;;;;;;;;;4598188;28;20910;-86
2020/12/06 06:33:15;;;;;;;19.90;15.60;;;9.80;77.90;;;;;;4596824;28;20966;-87
2020/12/06 06:35:32;;;;;;;18.47;15.93;;;;;;;;;;4595068;28;20443;-85
2020/12/06 06:37:49;;;;;;;17.17;14.80;;;;;;;;;;4597333;28;20487;-86
2020/12/06 06:40:08;;;;;;;18.03;15.80;;;10.70;78.90;;;;;;4595002;28;20946;-85
2020/12/06 06:42:27;;;;;;;17.20;14.77;;;10.50;78.80;;;;;;4597585;28;20471;-85
2020/12/06 06:44:44;;;;;;;19.00;15.90;;;;;;;;;;4594384;28;20427;-85
2020/12/06 06:47:02;;;;;;;17.27;14.80;;;;;;;;;;4597220;28;20527;-86
2020/12/06 06:49:20;;;;;;;17.83;15.93;;;;;;;;;;4595558;28;20438;-84
2020/12/06 06:51:37;;;;;;;22.03;16.43;;;;;;;;;;4596926;28;20476;-85
2020/12/06 06:54:04;;;;;;;18.63;14.80;;;10.20;78.40;;;;;;4593893;28;20440;-84
2020/12/06 06:56:21;;;;;;;18.80;15.87;;;;;;;;;;4595423;28;20436;-87
2020/12/06 06:58:38;;;;;;;18.33;15.10;;;;;;;;;;4594448;28;20444;-86
2020/12/06 07:01:19;;;;;;;17.97;15.67;;;10.80;78.70;;;;;;4595355;28;20472;-86
2020/12/06 07:03:42;;;;;;;17.30;15.37;;;9.40;82.60;;;;;;4596035;28;20444;-84
2020/12/06 07:05:58;;;;;;;15.83;14.13;;;10.10;83.20;;;;;;4595685;28;20431;-85
2020/12/06 07:08:15;;;;;;;19.07;15.63;;;;;;;;;;4596376;28;20486;-85
2020/12/06 07:10:33;;;;;;;16.40;14.37;;;;;;;;;;4594008;28;20930;-84
2020/12/06 07:12:51;;;;;;;17.97;14.57;;;;;;;;;;4596256;28;20455;-83
2020/12/06 07:15:08;;;;;;;17.50;15.17;;;;;;;;;;4594977;28;20530;-85
2020/12/06 07:17:25;;;;;;;16.17;13.97;;;;;;;;;;4596763;28;20451;-83
2020/12/06 07:19:41;;;;;;;18.23;14.60;;;;;;;;;;4593561;28;20480;-85
2020/12/06 07:21:58;;;;;;;17.30;14.53;;;;;;;;;;4595066;28;20468;-83
2020/12/06 07:24:16;;;;;;;17.60;14.50;;;;;;;;;;4594960;28;20432;-83
2020/12/06 07:26:33;;;;;;;16.37;14.00;;;;;;;;;;4578476;28;20444;-83
2020/12/06 07:28:51;;;;;;;17.90;15.30;;;;;;;;;;4577796;28;20540;-84
2020/12/06 07:31:10;;;;;;;18.83;14.77;;;;;;;;;;4595858;28;20439;-84
2020/12/06 07:33:26;;;;;;;17.80;14.97;;;;;;;;;;4593615;28;20427;-84
2020/12/06 07:35:43;;;;;;;16.97;15.10;;;;;;;;;;4593826;28;20451;-84
2020/12/06 07:38:00;;;;;;;15.23;13.57;;;;;;;;;;4593518;28;20452;-85
2020/12/06 07:40:17;;;;;;;16.37;14.57;;;;;;;;;;4594022;28;20479;-83
2020/12/06 07:42:35;;;;;;;15.57;13.77;;;;;;;;;;4594506;28;20466;-83
2020/12/06 07:44:52;;;;;;;16.40;14.60;;;;;;;;;;4591367;28;20452;-84
2020/12/06 07:47:09;;;;;;;16.27;14.17;;;;;;;;;;4594101;28;20447;-83
2020/12/06 07:49:25;;;;;;;14.80;13.30;;;;;;;;;;4593869;28;20470;-84
2020/12/06 07:51:43;;;;;;;17.80;12.67;;;;;;;;;;4595064;28;20520;-83
2020/12/06 07:54:01;;;;;;;14.43;12.93;;;;;;;;;;4593169;28;20443;-83
2020/12/06 07:56:22;;;;;;;14.00;12.50;;;;;;;;;;4595724;28;20515;-84
2020/12/06 07:58:42;;;;;;;14.37;12.90;;;;;;;;;;4593869;28;20455;-83
2020/12/06 08:00:58;;;;;;;14.47;12.97;;;;;;;;;;4595454;28;20459;-83
2020/12/06 08:03:20;;;;;;;12.43;11.13;;;;;;;;;;4592563;28;20428;-83
2020/12/06 08:05:39;;;;;;;13.67;12.03;;;;;;;;;;4594133;28;20447;-82
2020/12/06 08:07:57;;;;;;;13.80;11.20;;;;;;;;;;4594003;28;20479;-83
2020/12/06 08:10:18;;;;;;;13.17;11.67;;;;;;;;;;4593986;28;20461;-83
2020/12/06 08:12:35;;;;;;;13.40;11.80;;;;;;;;;;4592748;28;20460;-84
2020/12/06 08:15:00;;;;;;;15.80;12.10;;;;;;;;;;4577004;28;20560;-82
2020/12/06 08:17:16;;;;;;;12.57;10.77;;;;;;;;;;4593313;28;20430;-82
2020/12/06 08:19:37;;;;;;;13.03;10.97;;;;;;;;;;4594348;28;20438;-84
2020/12/06 08:21:58;;;;;;;13.20;11.80;;;;;;;;;;4595020;28;20953;-84
2020/12/06 08:24:21;;;;;;;15.70;12.60;;;10.00;77.70;;;;;;4575986;28;20477;-85
2020/12/06 08:26:38;;;;;;;15.77;12.80;;;;;;;;;;4595546;28;20567;-84
2020/12/06 08:28:54;;;;;;;13.47;12.07;;;9.50;83.10;;;;;;4592243;28;20475;-83
2020/12/06 08:31:22;;;;;;;15.07;12.13;;;;;;;;;;4594094;28;20451;-83
2020/12/06 08:33:38;;;;;;;13.80;12.30;;;;;;;;;;4575680;28;20483;-83
2020/12/06 08:35:57;;;;;;;13.83;11.33;;;;;;;;;;4593755;28;20447;-84
2020/12/06 08:38:14;;;;;;;13.70;11.50;;;;;;;;;;4593249;28;20479;-84
2020/12/06 08:40:32;;;;;;;14.47;10.63;;;;;;;;;;4594834;28;20476;-85
2020/12/06 08:42:57;;;;;;;11.73;10.57;;;10.50;78.40;;;;;;4591829;28;20460;-85
2020/12/06 08:45:13;;;;;;;13.00;9.90;;;;;;;;;;4593112;28;20463;-83
2020/12/06 08:47:43;;;;;;;14.17;10.50;;;11.00;78.70;;;;;;4592909;28;20448;-83
2020/12/06 08:50:04;;;;;;;12.07;10.03;;;10.20;78.10;;;;;;4595899;28;20475;-83
2020/12/06 08:52:21;;;;;;;11.43;9.10;;;;;;;;;;4593649;28;20440;-84
2020/12/06 08:54:38;;;;;;;11.90;9.63;;;;;;;;;;4592790;28;20440;-83
2020/12/06 08:57:06;;;;;;;11.60;8.97;;;10.70;78.00;;;;;;4593666;28;20447;-83
2020/12/06 08:59:23;;;;;;;13.40;9.80;;;;;;;;;;4591576;28;20482;-84
2020/12/06 09:01:49;;;;;;;14.00;9.67;;;;;;;;;;4593621;28;20483;-82
2020/12/06 09:04:06;;;;;;;15.53;10.37;;;;;;;;;;4591424;28;20423;-84
2020/12/06 09:06:26;;;;;;;11.33;10.00;;;;;;;;;;4593742;28;20534;-83
2020/12/06 09:08:46;;;;;;;14.37;10.00;;;;;;;;;;4591734;28;20436;-83
2020/12/06 09:11:02;;;;;;;12.57;9.83;;;;;;;;;;4576954;28;20445;-82
2020/12/06 09:13:19;;;;;;;11.77;9.70;;;;;;;;;;4591456;28;20472;-83
2020/12/06 09:15:39;;;;;;;11.97;9.10;;;;;;;;;;4594347;28;20420;-83
2020/12/06 09:17:55;;;;;;;11.67;9.97;;;;;;;;;;4591204;28;20468;-83
2020/12/06 09:20:13;;;;;;;12.90;9.90;;;;;;;;;;4592764;28;20484;-83
2020/12/06 09:22:30;;;;;;;12.83;9.70;;;;;;;;;;4578012;28;20445;-83
2020/12/06 09:24:46;;;;;;;11.57;9.53;;;;;;;;;;4598254;28;20424;-82
2020/12/06 09:27:02;;;;;;;12.50;10.03;;;;;;;;;;4598590;28;20442;-84
2020/12/06 09:29:19;;;;;;;13.43;9.70;;;;;;;;;;4598170;28;20459;-82
2020/12/06 09:31:36;;;;;;;11.87;10.03;;;9.90;81.30;;;;;;4597399;28;20436;-82
2020/12/06 09:33:53;;;;;;;13.30;10.20;;;;;;;;;;4597341;28;20438;-81
2020/12/06 09:36:11;;;;;;;15.23;10.80;;;;;;;;;;4597691;28;20428;-83
2020/12/06 09:38:27;;;;;;;14.80;10.33;;;10.30;80.90;;;;;;4590981;28;20444;-83
2020/12/06 09:40:44;;;;;;;12.77;9.87;;;;;;;;;;4595017;28;20476;-83
2020/12/06 09:43:00;;;;;;;11.50;9.70;;;;;;;;;;4590880;28;20467;-82
2020/12/06 09:45:17;;;;;;;13.93;9.67;;;;;;;;;;4594989;28;20428;-84
2020/12/06 09:47:33;;;;;;;11.70;10.20;;;;;;;;;;4574425;28;20449;-83
2020/12/06 09:49:51;;;;;;;12.10;9.70;;;;;;;;;;4594703;28;20957;-82
2020/12/06 09:52:08;;;;;;;12.80;10.27;;;;;;;;;;4591186;28;20490;-82
2020/12/06 09:54:25;;;;;;;14.40;9.27;;;;;;;;;;4593141;28;20436;-83
2020/12/06 09:56:42;;;;;;;11.87;9.00;;;;;;;;;;4593324;28;20440;-83
2020/12/06 09:58:59;;;;;;;12.20;9.63;;;9.30;79.40;;;;;;4594190;28;20936;-83
2020/12/06 10:01:15;;;;;;;10.83;8.63;;;;;;;;;;4592686;28;20571;-85
2020/12/06 10:03:33;;;;;;;10.13;8.93;;;;;;;;;;4593779;28;20443;-82
2020/12/06 10:05:49;;;;;;;12.17;8.60;;;;;;;;;;4595329;28;20527;-83
2020/12/06 10:08:06;;;;;;;10.53;9.00;;;;;;;;;;4597192;28;20458;-84
2020/12/06 10:10:23;;;;;;;13.27;9.30;;;;;;;;;;4598179;28;20436;-86
2020/12/06 10:12:40;;;;;;;14.27;9.10;;;;;;;;;;4596361;28;20793;-88
2020/12/06 10:14:56;;;;;;;12.60;8.90;;;;;;;;;;4597873;28;20523;-91
2020/12/06 10:17:15;;;;;;;12.50;8.87;;;;;;;;;;4595762;28;20440;-87
2020/12/06 10:19:31;;;;;;;15.20;9.27;;;;;;;;;;4596880;28;20976;-85
2020/12/06 10:21:50;;;;;;;13.27;9.80;;;;;;;;;;4596172;28;20982;-88
2020/12/06 10:24:07;;;;;;;9.97;8.23;;;;;;;;;;4600649;28;20863;-87
2020/12/06 10:26:23;;;;;;;12.17;10.00;;;;;;;;;;4594991;28;20439;-76
2020/12/06 10:28:39;;;;;;;40.17;32.13;;;;;;;;;;4597168;28;20847;-73
2020/12/06 10:30:55;;;;;;;12.70;9.23;;;11.00;78.00;;;;;;4594821;28;20952;-75
2020/12/06 10:33:11;;;;;;;12.77;9.57;;;;;;;;;;4596794;28;20448;-75
2020/12/06 10:35:27;;;;;;;12.40;10.53;;;;;;;;;;4594452;28;20942;-74
2020/12/06 10:37:43;;;;;;;9.77;8.70;;;11.90;76.90;;;;;;4595346;28;20909;-75
2020/12/06 10:39:59;;;;;;;13.67;9.30;;;11.80;73.60;;;;;;4594348;28;20482;-73
2020/12/06 10:42:15;;;;;;;10.87;9.63;;;;;;;;;;4596241;28;21032;-74
2020/12/06 10:44:31;;;;;;;11.83;9.30;;;;;;;;;;4594558;28;20455;-74
2020/12/06 10:46:47;;;;;;;12.27;9.03;;;13.10;76.80;;;;;;4596058;28;20452;-74
2020/12/06 10:49:03;;;;;;;13.23;9.17;;;12.60;76.30;;;;;;4594672;28;20448;-74
2020/12/06 10:51:21;;;;;;;11.03;8.53;;;13.30;76.80;;;;;;4595791;28;20444;-76
2020/12/06 10:53:37;;;;;;;10.90;9.30;;;12.70;76.40;;;;;;4593939;28;20444;-75
2020/12/06 10:55:54;;;;;;;12.27;8.97;;;11.20;72.30;;;;;;4595341;28;20444;-75
2020/12/06 10:58:10;;;;;;;12.27;9.47;;;13.70;76.40;;;;;;4595527;28;20463;-74
2020/12/06 11:00:26;;;;;;;14.47;9.43;;;11.70;75.10;;;;;;4594449;28;20801;-74
2020/12/06 11:02:41;;;;;;;11.90;9.90;;;12.40;75.60;;;;;;4595752;28;20502;-75
2020/12/06 11:04:57;;;;;;;13.23;10.10;;;12.20;75.40;;;;;;4594203;28;20452;-75
2020/12/06 11:07:13;;;;;;;11.77;9.43;;;;;;;;;;4595834;28;20514;-74
2020/12/06 11:09:28;;;;;;;10.43;9.27;;;13.00;75.80;;;;;;4593976;28;20444;-75
2020/12/06 11:11:50;;;;;;;13.30;9.50;;;13.00;75.60;;;;;;4595850;28;20471;-74
2020/12/06 11:14:05;;;;;;;10.97;9.00;;;12.80;75.60;;;;;;4593535;28;20998;-74
2020/12/06 11:16:23;;;;;;;10.87;9.20;;;12.50;75.20;;;;;;4594988;28;20494;-75
2020/12/06 11:18:39;;;;;;;10.63;9.00;;;11.80;74.60;;;;;;4593402;28;20207;-74
2020/12/06 11:20:54;;;;;;;9.17;8.20;;;13.30;75.60;;;;;;4596071;28;20516;-75
2020/12/06 11:23:10;;;;;;;10.57;8.93;;;;;;;;;;4592076;28;20436;-75
2020/12/06 11:25:26;;;;;;;15.03;10.43;;;13.20;75.00;;;;;;4594531;28;20199;-75
2020/12/06 11:27:43;;;;;;;15.17;9.83;;;11.40;71.10;;;;;;4593745;28;20806;-75
2020/12/06 11:29:58;;;;;;;17.10;8.87;;;12.10;74.10;;;;;;4593980;28;20273;-74
2020/12/06 11:32:15;;;;;;;9.77;8.47;;;;;;;;;;4593863;28;21018;-75
2020/12/06 11:34:30;;;;;;;12.53;8.47;;;;;;;;;;4595197;28;20506;-74
2020/12/06 11:36:48;;;;;;;11.93;8.60;;;13.50;74.90;;;;;;4593673;28;20653;-75
2020/12/06 11:39:04;;;;;;;15.57;9.33;;;15.60;69.80;;;;;;4594679;28;20206;-74
2020/12/06 11:41:20;;;;;;;9.70;7.83;;;15.30;65.50;;;;;;4594441;28;20265;-74
2020/12/06 11:43:36;;;;;;;12.83;8.20;;;14.80;65.70;;;;;;4593887;28;20688;-74
2020/12/06 11:45:52;;;;;;;11.30;7.70;;;14.40;65.30;;;;;;4594808;28;20213;-74
2020/12/06 11:48:08;;;;;;;10.93;8.23;;;15.90;66.20;;;;;;4592469;28;20226;-74
2020/12/06 11:50:24;;;;;;;10.20;7.53;;;;;;;;;;4594811;28;20245;-75
2020/12/06 11:52:39;;;;;;;11.23;8.17;;;15.60;66.10;;;;;;4593272;28;20199;-74
2020/12/06 11:54:55;;;;;;;11.37;7.70;;;14.20;66.10;;;;;;4593618;28;20198;-76
2020/12/06 11:57:11;;;;;;;16.03;8.73;;;;;;;;;;4593299;28;20205;-75
2020/12/06 11:59:28;;;;;;;9.17;7.60;;;15.70;65.90;;;;;;4595373;28;20289;-74
2020/12/06 12:01:43;;;;;;;9.20;7.90;;;15.10;69.00;;;;;;4592519;28;20230;-74
2020/12/06 12:03:59;;;;;;;9.30;7.40;;;14.40;69.30;;;;;;4595632;28;20206;-74
2020/12/06 12:06:18;;;;;;;13.03;8.10;;;15.30;70.10;;;;;;4592628;28;20665;-75
2020/12/06 12:08:37;;;;;;;15.97;11.40;;;;;;;;;;4595475;28;20669;-74
2020/12/06 12:10:52;;;;;;;8.70;7.80;;;13.50;66.10;;;;;;4592738;28;20202;-75
2020/12/06 12:13:08;;;;;;;12.43;8.03;;;15.00;70.00;;;;;;4594711;28;20237;-75
2020/12/06 12:15:25;;;;;;;10.73;8.07;;;14.30;69.70;;;;;;4593080;28;20285;-75
2020/12/06 12:17:40;;;;;;;12.53;8.43;;;14.00;66.50;;;;;;4595122;28;20206;-74
2020/12/06 12:19:56;;;;;;;8.40;7.47;;;13.80;69.70;;;;;;4592774;28;20198;-75
2020/12/06 12:22:20;;;;;;;10.23;7.93;;;14.30;70.10;;;;;;4594130;28;20261;-75
2020/12/06 12:24:36;;;;;;;8.50;7.30;;;;;;;;;;4593601;28;20194;-74
2020/12/06 12:26:57;;;;;;;9.70;7.00;;;;;;;;;;4593391;28;20202;-75
2020/12/06 12:29:12;;;;;;;8.73;6.67;;;14.30;70.40;;;;;;4594111;28;20575;-75
2020/12/06 12:31:31;;;;;;;9.37;7.60;;;;;;;;;;4593429;28;20619;-74
2020/12/06 12:33:47;;;;;;;11.67;8.30;;;14.50;70.40;;;;;;4593085;28;20190;-75
2020/12/06 12:36:03;;;;;;;10.63;7.13;;;15.40;71.00;;;;;;4592904;28;20194;-74
2020/12/06 12:38:20;;;;;;;9.07;7.30;;;13.80;69.90;;;;;;4594537;28;20234;-75
2020/12/06 12:40:38;;;;;;;12.67;7.90;;;13.90;69.60;;;;;;4592152;28;20199;-74
2020/12/06 12:42:53;;;;;;;40.13;35.80;;;15.20;70.90;;;;;;4594784;28;20218;-74
2020/12/06 12:45:09;;;;;;;20.37;12.33;;;;;;;;;;4592487;28;20282;-74
2020/12/06 12:47:27;;;;;;;10.07;8.13;;;13.90;67.40;;;;;;4594761;28;20708;-75
2020/12/06 12:49:43;;;;;;;10.27;7.40;;;14.20;70.70;;;;;;4591879;28;20194;-74
2020/12/06 12:52:00;;;;;;;10.17;8.10;;;14.40;70.90;;;;;;4594360;28;20667;-74
2020/12/06 12:54:16;;;;;;;11.10;7.47;;;12.30;69.70;;;;;;4592243;28;20259;-75
2020/12/06 12:56:31;;;;;;;11.17;8.33;;;14.00;71.00;;;;;;4594429;28;20194;-74